Observation data for Abernathy on 03/12/2018      Previous  Date  Next       Current Mesonet Observations  Soil Data  Daily Summary Page  Observations in Plain Language
KARS 120500Z 05005KT 04/M13 A3034 RMK A01 T00381129  RH  028%=      5-min Rain = 0
KARS 120505Z 06005KT 04/M13 A3034 RMK A01 T00351129  RH  029%=      5-min Rain = 0
KARS 120510Z 05004KT 03/M13 A3035 RMK A01 T00331128  RH  029%=      5-min Rain = 0
KARS 120515Z 05005KT 03/M13 A3035 RMK A01 T00321126  RH  030%=      5-min Rain = 0
KARS 120520Z 05004KT 03/M13 A3035 RMK A01 T00321126  RH  030%=      5-min Rain = 0
KARS 120525Z 05004KT 03/M13 A3035 RMK A01 T00321126  RH  030%=      5-min Rain = 0
KARS 120530Z 05003KT 03/M13 A3035 RMK A01 T00311125  RH  031%=      5-min Rain = 0
KARS 120535Z 05002KT 03/M12 A3035 RMK A01 T00301124  RH  031%=      5-min Rain = 0
KARS 120540Z 07001KT 03/M12 A3036 RMK A01 T00281124  RH  031%=      5-min Rain = 0
KARS 120545Z 10000KT 03/M12 A3036 RMK A01 T00261123  RH  032%=      5-min Rain = 0
KARS 120550Z 07001KT 03/M12 A3036 RMK A01 T00261123  RH  032%=      5-min Rain = 0
KARS 120555Z 06001KT 03/M12 A3036 RMK A01 T00261122  RH  032%=      5-min Rain = 0
KARS 120600Z 04000KT 03/M12 A3036 RMK A01 T00261122  RH  032%=      5-min Rain = 0
KARS 120605Z 03001KT 03/M12 A3036 RMK A01 T00281121  RH  032%=      5-min Rain = 0
KARS 120610Z 04001KT 03/M12 A3036 RMK A01 T00261122  RH  032%=      5-min Rain = 0
KARS 120615Z 04001KT 03/M12 A3036 RMK A01 T00261121  RH  033%=      5-min Rain = 0
KARS 120620Z 04001KT 03/M12 A3036 RMK A01 T00281120  RH  032%=      5-min Rain = 0
KARS 120625Z 05001KT 03/M12 A3036 RMK A01 T00271119  RH  033%=      5-min Rain = 0
KARS 120630Z 02001KT 03/M12 A3036 RMK A01 T00261117  RH  034%=      5-min Rain = 0
KARS 120635Z 03002KT 02/M12 A3036 RMK A01 T00241116  RH  035%=      5-min Rain = 0
KARS 120640Z 05003KT 02/M11 A3036 RMK A01 T00201112  RH  037%=      5-min Rain = 0
KARS 120645Z 05003KT 02/M11 A3036 RMK A01 T00151111  RH  038%=      5-min Rain = 0
KARS 120650Z 04002KT 02/M11 A3036 RMK A01 T00151108  RH  039%=      5-min Rain = 0
KARS 120655Z 03002KT 02/M11 A3036 RMK A01 T00161106  RH  040%=      5-min Rain = 0
KARS 120700Z 03002KT 02/M11 A3036 RMK A01 T00171105  RH  040%=      5-min Rain = 0
KARS 120705Z 03003KT 02/M10 A3036 RMK A01 T00171102  RH  040%=      5-min Rain = 0
KARS 120710Z 04002KT 02/M10 A3036 RMK A01 T00181103  RH  040%=      5-min Rain = 0
KARS 120715Z 03002KT 02/M10 A3036 RMK A01 T00191103  RH  040%=      5-min Rain = 0
KARS 120720Z 02002KT 02/M10 A3036 RMK A01 T00181104  RH  040%=      5-min Rain = 0
KARS 120725Z 01002KT 02/M10 A3036 RMK A01 T00181102  RH  040%=      5-min Rain = 0
KARS 120730Z 35002KT 02/M10 A3036 RMK A01 T00201100  RH  041%=      5-min Rain = 0
KARS 120735Z 35002KT 02/M10 A3036 RMK A01 T00211099  RH  041%=      5-min Rain = 0
KARS 120740Z 35002KT 02/M10 A3036 RMK A01 T00191096  RH  042%=      5-min Rain = 0
KARS 120745Z 36002KT 02/M10 A3036 RMK A01 T00181100  RH  041%=      5-min Rain = 0
KARS 120750Z 01002KT 02/M11 A3036 RMK A01 T00181110  RH  038%=      5-min Rain = 0
KARS 120755Z 03002KT 02/M11 A3036 RMK A01 T00181112  RH  037%=      5-min Rain = 0
KARS 120800Z 03003KT 02/M11 A3036 RMK A01 T00161105  RH  040%=      5-min Rain = 0
KARS 120805Z 03003KT 02/M10 A3036 RMK A01 T00161102  RH  041%=      5-min Rain = 0
KARS 120810Z 03003KT 02/M10 A3036 RMK A01 T00151100  RH  042%=      5-min Rain = 0
KARS 120815Z 03003KT 01/M10 A3036 RMK A01 T00131098  RH  043%=      5-min Rain = 0
KARS 120820Z 01003KT 01/M10 A3036 RMK A01 T00101098  RH  044%=      5-min Rain = 0
KARS 120825Z 32003KT 01/M10 A3036 RMK A01 T00061099  RH  045%=      5-min Rain = 0
KARS 120830Z 33003KT 00/M10 A3036 RMK A01 T00031099  RH  046%=      5-min Rain = 0
KARS 120835Z 34004KT 00/M10 A3036 RMK A01 T00041096  RH  047%=      5-min Rain = 0
KARS 120840Z 00004KT 01/M10 A3035 RMK A01 T00071096  RH  046%=      5-min Rain = 0
KARS 120845Z 01003KT 01/M09 A3035 RMK A01 T00061093  RH  047%=      5-min Rain = 0
KARS 120850Z 36003KT 01/M09 A3036 RMK A01 T00071090  RH  048%=      5-min Rain = 0
KARS 120855Z 35002KT 01/M09 A3035 RMK A01 T00061093  RH  047%=      5-min Rain = 0
KARS 120900Z 00004KT 00/M09 A3035 RMK A01 T00021094  RH  048%=      5-min Rain = 0
KARS 120905Z 01005KT 00/M09 A3035 RMK A01 T00011092  RH  049%=      5-min Rain = 0
KARS 120910Z 01005KT 00/M09 A3035 RMK A01 T00031089  RH  050%=      5-min Rain = 0
KARS 120915Z 02004KT 01/M09 A3034 RMK A01 T00051088  RH  050%=      5-min Rain = 0
KARS 120920Z 01004KT 00/M09 A3035 RMK A01 T00041087  RH  050%=      5-min Rain = 0
KARS 120925Z 01004KT 00/M09 A3034 RMK A01 T00031088  RH  051%=      5-min Rain = 0
KARS 120930Z 01004KT 00/09 A3035 RMK A01 T00000-89  RH  051%=      5-min Rain = 0
KARS 120935Z 01004KT 00/09 A3035 RMK A01 T00-00-87  RH  052%=      5-min Rain = 0
KARS 120940Z 00004KT 00/M09 A3035 RMK A01 T00011086  RH  052%=      5-min Rain = 0
KARS 120945Z 01004KT 00/M09 A3034 RMK A01 T00041085  RH  052%=      5-min Rain = 0
KARS 120950Z 01004KT 01/M08 A3034 RMK A01 T00051083  RH  052%=      5-min Rain = 0
KARS 120955Z 02005KT 01/M08 A3034 RMK A01 T00061080  RH  052%=      5-min Rain = 0
KARS 121000Z 02005KT 01/M08 A3034 RMK A01 T00081080  RH  052%=      5-min Rain = 0
KARS 121005Z 02005KT 01/M08 A3034 RMK A01 T00101078  RH  052%=      5-min Rain = 0
KARS 121010Z 02005KT 01/M08 A3034 RMK A01 T00101079  RH  052%=      5-min Rain = 0
KARS 121015Z 02005KT 01/M08 A3034 RMK A01 T00091078  RH  052%=      5-min Rain = 0
KARS 121020Z 02004KT 01/M08 A3034 RMK A01 T00081079  RH  052%=      5-min Rain = 0
KARS 121025Z 03004KT 01/M08 A3034 RMK A01 T00071079  RH  052%=      5-min Rain = 0
KARS 121030Z 04004KT 01/M08 A3034 RMK A01 T00071078  RH  053%=      5-min Rain = 0
KARS 121035Z 03004KT 01/M08 A3034 RMK A01 T00071080  RH  052%=      5-min Rain = 0
KARS 121040Z 03004KT 01/M08 A3034 RMK A01 T00071080  RH  052%=      5-min Rain = 0
KARS 121045Z 03005KT 01/M08 A3034 RMK A01 T00051081  RH  053%=      5-min Rain = 0
KARS 121050Z 02005KT 00/M08 A3034 RMK A01 T00041080  RH  053%=      5-min Rain = 0
KARS 121055Z 04005KT 00/M08 A3035 RMK A01 T00041078  RH  054%=      5-min Rain = 0
KARS 121100Z 03005KT 01/M08 A3035 RMK A01 T00051076  RH  054%=      5-min Rain = 0
KARS 121105Z 04005KT 01/M07 A3035 RMK A01 T00071074  RH  055%=      5-min Rain = 0
KARS 121110Z 03006KT 01/M07 A3034 RMK A01 T00081073  RH  055%=      5-min Rain = 0
KARS 121115Z 04005KT 01/M07 A3035 RMK A01 T00071072  RH  056%=      5-min Rain = 0
KARS 121120Z 04004KT 01/M07 A3035 RMK A01 T00071071  RH  056%=      5-min Rain = 0
KARS 121125Z 04004KT 01/M07 A3035 RMK A01 T00081069  RH  056%=      5-min Rain = 0
KARS 121130Z 04004KT 01/M07 A3035 RMK A01 T00081069  RH  056%=      5-min Rain = 0
KARS 121135Z 03005KT 01/M07 A3036 RMK A01 T00071069  RH  057%=      5-min Rain = 0
KARS 121140Z 03004KT 01/M07 A3036 RMK A01 T00051070  RH  057%=      5-min Rain = 0
KARS 121145Z 02004KT 00/M07 A3036 RMK A01 T00021073  RH  057%=      5-min Rain = 0
KARS 121150Z 01004KT 00/07 A3036 RMK A01 T00-00-74  RH  057%=      5-min Rain = 0
KARS 121155Z 02004KT M00/M08 A3036 RMK A01 T10031075  RH  058%=      5-min Rain = 0
KARS 121200Z 02003KT M01/M08 A3036 RMK A01 T10051076  RH  059%=      5-min Rain = 0
KARS 121205Z 02004KT M01/M08 A3036 RMK A01 T10051075  RH  059%=      5-min Rain = 0
KARS 121210Z 02004KT M01/M08 A3036 RMK A01 T10061076  RH  059%=      5-min Rain = 0
KARS 121215Z 03004KT M01/M08 A3035 RMK A01 T10091077  RH  060%=      5-min Rain = 0
KARS 121220Z 03003KT M01/M08 A3036 RMK A01 T10101077  RH  060%=      5-min Rain = 0
KARS 121225Z 03003KT M01/M08 A3036 RMK A01 T10111076  RH  061%=      5-min Rain = 0
KARS 121230Z 02003KT M01/M08 A3036 RMK A01 T10111076  RH  061%=      5-min Rain = 0
KARS 121235Z 01003KT M01/M08 A3036 RMK A01 T10121076  RH  061%=      5-min Rain = 0
KARS 121240Z 01003KT M01/M08 A3036 RMK A01 T10111077  RH  061%=      5-min Rain = 0
KARS 121245Z 00003KT M01/M08 A3036 RMK A01 T10121077  RH  061%=      5-min Rain = 0
KARS 121250Z 35002KT M01/M08 A3037 RMK A01 T10131077  RH  062%=      5-min Rain = 0
KARS 121255Z 33002KT M02/M08 A3037 RMK A01 T10151077  RH  063%=      5-min Rain = 0
KARS 121300Z 33002KT M02/M08 A3037 RMK A01 T10171078  RH  063%=      5-min Rain = 0
KARS 121305Z 33002KT M02/M08 A3037 RMK A01 T10181078  RH  063%=      5-min Rain = 0
KARS 121310Z 33001KT M02/M08 A3037 RMK A01 T10171078  RH  063%=      5-min Rain = 0
KARS 121315Z 31002KT M02/M08 A3037 RMK A01 T10171076  RH  064%=      5-min Rain = 0
KARS 121320Z 32003KT M01/M07 A3037 RMK A01 T10121069  RH  065%=      5-min Rain = 0
KARS 121325Z 31003KT M01/M07 A3037 RMK A01 T10061069  RH  062%=      5-min Rain = 0
KARS 121330Z 32003KT M00/M07 A3037 RMK A01 T10011067  RH  061%=      5-min Rain = 0
KARS 121335Z 33002KT 01/M07 A3037 RMK A01 T00051066  RH  059%=      5-min Rain = 0
KARS 121340Z 30001KT 01/M06 A3037 RMK A01 T00111064  RH  057%=      5-min Rain = 0
KARS 121345Z 31000KT 02/M06 A3037 RMK A01 T00151062  RH  057%=      5-min Rain = 0
KARS 121350Z 27001KT 02/M06 A3038 RMK A01 T00171062  RH  056%=      5-min Rain = 0
KARS 121355Z 26001KT 02/M06 A3038 RMK A01 T00171061  RH  056%=      5-min Rain = 0
KARS 121400Z 28001KT 02/M06 A3038 RMK A01 T00181058  RH  057%=      5-min Rain = 0
KARS 121405Z 29001KT 02/M06 A3038 RMK A01 T00191056  RH  058%=      5-min Rain = 0
KARS 121410Z 25001KT 02/M05 A3038 RMK A01 T00201054  RH  058%=      5-min Rain = 0
KARS 121415Z 24000KT 02/M05 A3038 RMK A01 T00221054  RH  057%=      5-min Rain = 0
KARS 121420Z 22000KT 03/M05 A3039 RMK A01 T00251052  RH  057%=      5-min Rain = 0
KARS 121425Z 00000KT 03/M05 A3039 RMK A01 T00281051  RH  056%=      5-min Rain = 0
KARS 121430Z 00000KT 03/M05 A3039 RMK A01 T00301050  RH  056%=      5-min Rain = 0
KARS 121435Z 34001KT 03/M05 A3039 RMK A01 T00341049  RH  055%=      5-min Rain = 0
KARS 121440Z 29001KT 04/M05 A3039 RMK A01 T00361048  RH  054%=      5-min Rain = 0
KARS 121445Z 31001KT 04/M05 A304 RMK A01 T00381048  RH  054%=      5-min Rain = 0
KARS 121450Z 27002KT 04/M05 A304 RMK A01 T00411046  RH  053%=      5-min Rain = 0
KARS 121455Z 26002KT 04/M04 A304 RMK A01 T00421043  RH  054%=      5-min Rain = 0
KARS 121500Z 27002KT 05/M04 A304 RMK A01 T00451043  RH  053%=      5-min Rain = 0
KARS 121505Z 24002KT 05/M04 A304 RMK A01 T00461042  RH  053%=      5-min Rain = 0
KARS 121510Z 23003KT 05/M04 A304 RMK A01 T00481043  RH  052%=      5-min Rain = 0
KARS 121515Z 24002KT 05/M04 A304 RMK A01 T00501043  RH  051%=      5-min Rain = 0
KARS 121520Z 26003KT 05/M04 A304 RMK A01 T00521043  RH  050%=      5-min Rain = 0
KARS 121525Z 25001KT 05/M04 A304 RMK A01 T00541042  RH  050%=      5-min Rain = 0
KARS 121530Z 18002KT 06/M04 A304 RMK A01 T00561040  RH  050%=      5-min Rain = 0
KARS 121535Z 17002KT 06/M04 A304 RMK A01 T00631038  RH  049%=      5-min Rain = 0
KARS 121540Z 21002KT 06/M04 A304 RMK A01 T00631040  RH  048%=      5-min Rain = 0
KARS 121545Z 23005KT 06/M04 A304 RMK A01 T00631040  RH  048%=      5-min Rain = 0
KARS 121550Z 20002KT 07/M04 A304 RMK A01 T00651038  RH  048%=      5-min Rain = 0
KARS 121555Z 23003KT 07/M04 A304 RMK A01 T00701040  RH  046%=      5-min Rain = 0
KARS 121600Z 23003KT 07/M04 A304 RMK A01 T00691040  RH  046%=      5-min Rain = 0
KARS 121605Z 21003KT 07/M04 A304 RMK A01 T00701040  RH  046%=      5-min Rain = 0
KARS 121610Z 20004KT 07/M04 A304 RMK A01 T00701039  RH  046%=      5-min Rain = 0
KARS 121615Z 24003G9KT 07/M04 A304 RMK A01 T00731040  RH  045%=      5-min Rain = 0
KARS 121620Z 21005KT 07/M04 A304 RMK A01 T00731040  RH  045%=      5-min Rain = 0
KARS 121625Z 18003KT 07/M04 A304 RMK A01 T00731040  RH  045%=      5-min Rain = 0
KARS 121630Z 18002KT 08/M04 A304 RMK A01 T00751040  RH  044%=      5-min Rain = 0
KARS 121635Z 20004KT 08/M04 A304 RMK A01 T00761040  RH  044%=      5-min Rain = 0
KARS 121640Z 23003KT 08/M04 A3039 RMK A01 T00761039  RH  044%=      5-min Rain = 0
KARS 121645Z 17003KT 08/M04 A3039 RMK A01 T00821038  RH  043%=      5-min Rain = 0
KARS 121650Z 17003KT 09/M04 A3039 RMK A01 T00871040  RH  041%=      5-min Rain = 0
KARS 121655Z 13004KT 08/M04 A3039 RMK A01 T00841042  RH  041%=      5-min Rain = 0
KARS 121700Z 16003KT 08/M04 A3039 RMK A01 T00801042  RH  042%=      5-min Rain = 0
KARS 121705Z 22002KT 08/M04 A3039 RMK A01 T00801043  RH  042%=      5-min Rain = 0
KARS 121710Z 25002KT 08/M04 A3038 RMK A01 T00801041  RH  042%=      5-min Rain = 0
KARS 121715Z 13003KT 09/M04 A3038 RMK A01 T00871040  RH  041%=      5-min Rain = 0
KARS 121720Z 14003KT 09/M04 A3038 RMK A01 T00901040  RH  040%=      5-min Rain = 0
KARS 121725Z 17005KT 09/M04 A3038 RMK A01 T00941042  RH  038%=      5-min Rain = 0
KARS 121730Z 18003G8KT 09/M04 A3037 RMK A01 T00921044  RH  038%=      5-min Rain = 0
KARS 121735Z 17004G9KT 10/M04 A3037 RMK A01 T00951041  RH  038%=      5-min Rain = 0
KARS 121740Z 21004KT 10/M04 A3037 RMK A01 T00961043  RH  037%=      5-min Rain = 0
KARS 121745Z 15004KT 10/M04 A3037 RMK A01 T00961044  RH  037%=      5-min Rain = 0
KARS 121750Z 14003KT 10/M04 A3037 RMK A01 T00991042  RH  037%=      5-min Rain = 0
KARS 121755Z 20005KT 10/M05 A3037 RMK A01 T01031045  RH  035%=      5-min Rain = 0
KARS 121800Z 26004KT 10/M05 A3036 RMK A01 T01011047  RH  035%=      5-min Rain = 0
KARS 121805Z 27003KT 10/M05 A3036 RMK A01 T01021047  RH  035%=      5-min Rain = 0
KARS 121810Z 17004G9KT 11/M05 A3036 RMK A01 T01081048  RH  033%=      5-min Rain = 0
KARS 121815Z 11004KT 11/M05 A3036 RMK A01 T01101048  RH  033%=      5-min Rain = 0
KARS 121820Z 08003KT 11/M05 A3035 RMK A01 T01081048  RH  033%=      5-min Rain = 0
KARS 121825Z 09002KT 11/M05 A3035 RMK A01 T01091050  RH  033%=      5-min Rain = 0
KARS 121830Z 16004KT 12/M05 A3035 RMK A01 T01151051  RH  031%=      5-min Rain = 0
KARS 121835Z 19004G11KT 12/M05 A3035 RMK A01 T01151052  RH  031%=      5-min Rain = 0
KARS 121840Z 24004KT 12/M05 A3034 RMK A01 T01151053  RH  030%=      5-min Rain = 0
KARS 121845Z 28005KT 11/M06 A3034 RMK A01 T01121060  RH  030%=      5-min Rain = 0
KARS 121850Z 23004KT 11/M06 A3034 RMK A01 T01121057  RH  030%=      5-min Rain = 0
KARS 121855Z 27002KT 12/M06 A3033 RMK A01 T01201057  RH  029%=      5-min Rain = 0
KARS 121900Z 30004KT 12/M06 A3033 RMK A01 T01191058  RH  029%=      5-min Rain = 0
KARS 121905Z 31003KT 12/M06 A3033 RMK A01 T01171058  RH  029%=      5-min Rain = 0
KARS 121910Z 18002KT 12/M07 A3033 RMK A01 T01191066  RH  027%=      5-min Rain = 0
KARS 121915Z 04002KT 12/M07 A3032 RMK A01 T01221067  RH  026%=      5-min Rain = 0
KARS 121920Z 01006KT 12/M07 A3032 RMK A01 T01221069  RH  026%=      5-min Rain = 0
KARS 121925Z 00005KT 12/M07 A3031 RMK A01 T01221066  RH  026%=      5-min Rain = 0
KARS 121930Z 03005KT 12/M06 A3031 RMK A01 T01221062  RH  027%=      5-min Rain = 0
KARS 121935Z 02003KT 12/M06 A3031 RMK A01 T01221062  RH  027%=      5-min Rain = 0
KARS 121940Z 04002KT 12/M06 A3031 RMK A01 T01211063  RH  027%=      5-min Rain = 0
KARS 121945Z 17004KT 13/M06 A303 RMK A01 T01261060  RH  027%=      5-min Rain = 0
KARS 121950Z 23004KT 13/M06 A303 RMK A01 T01291059  RH  027%=      5-min Rain = 0
KARS 121955Z 18002KT 13/M06 A303 RMK A01 T01331058  RH  026%=      5-min Rain = 0
KARS 122000Z 19002KT 14/M06 A303 RMK A01 T01381061  RH  025%=      5-min Rain = 0
KARS 122005Z 24003KT 13/M06 A3029 RMK A01 T01331061  RH  025%=      5-min Rain = 0
KARS 122010Z 26001KT 13/M06 A3029 RMK A01 T01291062  RH  026%=      5-min Rain = 0
KARS 122015Z 11003KT 13/M06 A3029 RMK A01 T01341063  RH  025%=      5-min Rain = 0
KARS 122020Z 05005G10KT 13/M06 A3029 RMK A01 T01331063  RH  025%=      5-min Rain = 0
KARS 122025Z 00003KT 14/M06 A3029 RMK A01 T01361062  RH  025%=      5-min Rain = 0
KARS 122030Z 06004KT 13/M06 A3028 RMK A01 T01331064  RH  025%=      5-min Rain = 0
KARS 122035Z 30002KT 13/M06 A3028 RMK A01 T01331064  RH  025%=      5-min Rain = 0
KARS 122040Z 21004KT 13/M07 A3028 RMK A01 T01321065  RH  025%=      5-min Rain = 0
KARS 122045Z 16004KT 13/M07 A3027 RMK A01 T01341067  RH  024%=      5-min Rain = 0
KARS 122050Z 15003G8KT 14/M07 A3027 RMK A01 T01371066  RH  024%=      5-min Rain = 0
KARS 122055Z 17006G11KT 14/M07 A3027 RMK A01 T01381067  RH  024%=      5-min Rain = 0
KARS 122100Z 19005KT 14/M07 A3027 RMK A01 T01391065  RH  024%=      5-min Rain = 0
KARS 122105Z 22003KT 14/M07 A3026 RMK A01 T01371068  RH  023%=      5-min Rain = 0
KARS 122110Z 11002KT 14/M07 A3026 RMK A01 T01361070  RH  023%=      5-min Rain = 0
KARS 122115Z 04003KT 14/M07 A3026 RMK A01 T01361068  RH  024%=      5-min Rain = 0
KARS 122120Z 02002KT 14/M07 A3025 RMK A01 T01411069  RH  023%=      5-min Rain = 0
KARS 122125Z 25005KT 14/M07 A3025 RMK A01 T01431072  RH  022%=      5-min Rain = 0
KARS 122130Z 17004G9KT 14/M07 A3025 RMK A01 T01401070  RH  023%=      5-min Rain = 0
KARS 122135Z 12003KT 14/M07 A3024 RMK A01 T01381069  RH  023%=      5-min Rain = 0
KARS 122140Z 18007KT 14/M07 A3024 RMK A01 T01411068  RH  023%=      5-min Rain = 0
KARS 122145Z 21005KT 14/M07 A3024 RMK A01 T01431069  RH  022%=      5-min Rain = 0
KARS 122150Z 17001KT 14/M07 A3024 RMK A01 T01401071  RH  023%=      5-min Rain = 0
KARS 122155Z 20003G9KT 14/M07 A3023 RMK A01 T01431069  RH  022%=      5-min Rain = 0
KARS 122200Z 16006KT 14/M07 A3023 RMK A01 T01381070  RH  023%=      5-min Rain = 0
KARS 122205Z 15004KT 14/M07 A3023 RMK A01 T01361070  RH  023%=      5-min Rain = 0
KARS 122210Z 16003KT 14/M07 A3023 RMK A01 T01351072  RH  023%=      5-min Rain = 0
KARS 122215Z 11001KT 14/M07 A3022 RMK A01 T01391071  RH  023%=      5-min Rain = 0
KARS 122220Z 17003G9KT 14/M07 A3022 RMK A01 T01431070  RH  022%=      5-min Rain = 0
KARS 122225Z 20004KT 14/M07 A3022 RMK A01 T01411070  RH  022%=      5-min Rain = 0
KARS 122230Z 24002KT 14/M07 A3022 RMK A01 T01401072  RH  022%=      5-min Rain = 0
KARS 122235Z 26001KT 15/M07 A3021 RMK A01 T01451071  RH  022%=      5-min Rain = 0
KARS 122240Z 18005G10KT 15/M07 A3021 RMK A01 T01461070  RH  022%=      5-min Rain = 0
KARS 122245Z 18006KT 14/M07 A3021 RMK A01 T01391069  RH  023%=      5-min Rain = 0
KARS 122250Z 18005KT 14/M07 A3021 RMK A01 T01401071  RH  022%=      5-min Rain = 0
KARS 122255Z 17006KT 14/M07 A3021 RMK A01 T01411074  RH  022%=      5-min Rain = 0
KARS 122300Z 17005KT 14/M07 A3021 RMK A01 T01391073  RH  022%=      5-min Rain = 0
KARS 122305Z 15003G8KT 14/M07 A3021 RMK A01 T01381073  RH  022%=      5-min Rain = 0
KARS 122310Z 17007KT 14/M07 A3021 RMK A01 T01371074  RH  022%=      5-min Rain = 0
KARS 122315Z 14006KT 14/M07 A3021 RMK A01 T01381074  RH  022%=      5-min Rain = 0
KARS 122320Z 15004KT 14/M08 A302 RMK A01 T01391075  RH  022%=      5-min Rain = 0
KARS 122325Z 19007KT 14/M08 A302 RMK A01 T01381077  RH  022%=      5-min Rain = 0
KARS 122330Z 19007KT 14/M08 A302 RMK A01 T01351079  RH  022%=      5-min Rain = 0
KARS 122335Z 19004KT 13/M08 A302 RMK A01 T01341079  RH  022%=      5-min Rain = 0
KARS 122340Z 18004KT 14/M08 A302 RMK A01 T01381080  RH  021%=      5-min Rain = 0
KARS 122345Z 19005KT 14/M08 A302 RMK A01 T01361081  RH  021%=      5-min Rain = 0
KARS 122350Z 20005KT 13/M08 A302 RMK A01 T01341081  RH  022%=      5-min Rain = 0
KARS 122355Z 19006KT 13/M08 A302 RMK A01 T01331082  RH  022%=      5-min Rain = 0
KARS 130000Z 19006KT 13/M08 A302 RMK A01 T01321082  RH  022%=      5-min Rain = 0
KARS 130005Z 20006KT 13/M08 A302 RMK A01 T01311083  RH  022%=      5-min Rain = 0
KARS 130010Z 19007KT 13/M08 A302 RMK A01 T01311082  RH  022%=      5-min Rain = 0
KARS 130015Z 18005KT 13/M08 A3021 RMK A01 T01281081  RH  022%=      5-min Rain = 0
KARS 130020Z 18005KT 13/M08 A302 RMK A01 T01271080  RH  023%=      5-min Rain = 0
KARS 130025Z 18005KT 13/M08 A302 RMK A01 T01261080  RH  023%=      5-min Rain = 0
KARS 130030Z 18005KT 12/M08 A3021 RMK A01 T01231079  RH  024%=      5-min Rain = 0
KARS 130035Z 18005KT 12/M08 A3021 RMK A01 T01181078  RH  025%=      5-min Rain = 0
KARS 130040Z 18005KT 11/M08 A3021 RMK A01 T01131078  RH  025%=      5-min Rain = 0
KARS 130045Z 18004KT 11/M08 A3021 RMK A01 T01091080  RH  026%=      5-min Rain = 0
KARS 130050Z 17005KT 11/M08 A3021 RMK A01 T01051080  RH  026%=      5-min Rain = 0
KARS 130055Z 17006KT 11/M08 A3021 RMK A01 T01051081  RH  026%=      5-min Rain = 0
KARS 130100Z 17006KT 10/M08 A3021 RMK A01 T01031080  RH  027%=      5-min Rain = 0
KARS 130105Z 15006KT 10/M08 A3021 RMK A01 T00991083  RH  027%=      5-min Rain = 0
KARS 130110Z 15006KT 10/M08 A3021 RMK A01 T00951084  RH  027%=      5-min Rain = 0
KARS 130115Z 15006KT 09/M09 A3021 RMK A01 T00911086  RH  028%=      5-min Rain = 0
KARS 130120Z 14007KT 09/M09 A3022 RMK A01 T00881087  RH  028%=      5-min Rain = 0
KARS 130125Z 15007KT 09/M09 A3022 RMK A01 T00861086  RH  029%=      5-min Rain = 0
KARS 130130Z 14007KT 08/M09 A3022 RMK A01 T00841087  RH  029%=      5-min Rain = 0
KARS 130135Z 14007KT 08/M09 A3022 RMK A01 T00811089  RH  029%=      5-min Rain = 0
KARS 130140Z 15007KT 08/M09 A3022 RMK A01 T00791088  RH  029%=      5-min Rain = 0
KARS 130145Z 15006KT 08/M09 A3022 RMK A01 T00771087  RH  030%=      5-min Rain = 0
KARS 130150Z 15006KT 07/M09 A3022 RMK A01 T00731090  RH  030%=      5-min Rain = 0
KARS 130155Z 15007KT 07/M09 A3022 RMK A01 T00701092  RH  030%=      5-min Rain = 0
KARS 130200Z 14007KT 07/M09 A3022 RMK A01 T00691092  RH  031%=      5-min Rain = 0
KARS 130205Z 15008KT 07/M09 A3023 RMK A01 T00701091  RH  031%=      5-min Rain = 0
KARS 130210Z 15008KT 07/M09 A3023 RMK A01 T00711092  RH  030%=      5-min Rain = 0
KARS 130215Z 15008KT 07/M09 A3023 RMK A01 T00701092  RH  030%=      5-min Rain = 0
KARS 130220Z 15008KT 07/M09 A3023 RMK A01 T00691092  RH  031%=      5-min Rain = 0
KARS 130225Z 16008KT 07/M09 A3023 RMK A01 T00691091  RH  031%=      5-min Rain = 0
KARS 130230Z 16008KT 07/M09 A3023 RMK A01 T00691089  RH  031%=      5-min Rain = 0
KARS 130235Z 16008KT 07/M09 A3023 RMK A01 T00691086  RH  032%=      5-min Rain = 0
KARS 130240Z 16008KT 07/M08 A3023 RMK A01 T00711084  RH  032%=      5-min Rain = 0
KARS 130245Z 15008KT 07/M08 A3023 RMK A01 T00701084  RH  032%=      5-min Rain = 0
KARS 130250Z 15008KT 07/M08 A3023 RMK A01 T00691084  RH  033%=      5-min Rain = 0
KARS 130255Z 16009KT 07/M08 A3023 RMK A01 T00701084  RH  033%=      5-min Rain = 0
KARS 130300Z 16008KT 07/M08 A3023 RMK A01 T00701084  RH  033%=      5-min Rain = 0
KARS 130305Z 16009KT 07/M08 A3024 RMK A01 T00681084  RH  033%=      5-min Rain = 0
KARS 130310Z 16009KT 07/M09 A3024 RMK A01 T00671085  RH  033%=      5-min Rain = 0
KARS 130315Z 16009KT 07/M08 A3023 RMK A01 T00661084  RH  033%=      5-min Rain = 0
KARS 130320Z 16009KT 07/M08 A3023 RMK A01 T00661084  RH  033%=      5-min Rain = 0
KARS 130325Z 16009KT 07/M08 A3023 RMK A01 T00651084  RH  034%=      5-min Rain = 0
KARS 130330Z 16009KT 06/M08 A3023 RMK A01 T00641083  RH  034%=      5-min Rain = 0
KARS 130335Z 16009KT 06/M08 A3023 RMK A01 T00641084  RH  034%=      5-min Rain = 0
KARS 130340Z 16009KT 06/M08 A3023 RMK A01 T00631084  RH  034%=      5-min Rain = 0
KARS 130345Z 17009KT 06/M09 A3023 RMK A01 T00621085  RH  034%=      5-min Rain = 0
KARS 130350Z 17009KT 06/M09 A3023 RMK A01 T00601086  RH  034%=      5-min Rain = 0
KARS 130355Z 16008KT 06/M09 A3023 RMK A01 T00591086  RH  034%=      5-min Rain = 0
KARS 130400Z 17008KT 06/M09 A3023 RMK A01 T00591086  RH  034%=      5-min Rain = 0
KARS 130405Z 17008KT 06/M09 A3023 RMK A01 T00581087  RH  034%=      5-min Rain = 0
KARS 130410Z 17008KT 06/M09 A3023 RMK A01 T00561087  RH  035%=      5-min Rain = 0
KARS 130415Z 17008KT 05/M09 A3023 RMK A01 T00541088  RH  035%=      5-min Rain = 0
KARS 130420Z 17008KT 05/M09 A3023 RMK A01 T00521087  RH  036%=      5-min Rain = 0
KARS 130425Z 17008KT 05/M09 A3023 RMK A01 T00531087  RH  036%=      5-min Rain = 0
KARS 130430Z 17008KT 05/M09 A3023 RMK A01 T00521087  RH  036%=      5-min Rain = 0
KARS 130435Z 17007KT 05/M09 A3023 RMK A01 T00511088  RH  036%=      5-min Rain = 0
KARS 130440Z 16006KT 05/M09 A3023 RMK A01 T00481088  RH  036%=      5-min Rain = 0
KARS 130445Z 16006KT 05/M09 A3023 RMK A01 T00451088  RH  037%=      5-min Rain = 0
KARS 130450Z 16007KT 04/M09 A3023 RMK A01 T00431088  RH  038%=      5-min Rain = 0
KARS 130455Z 16008KT 04/M09 A3023 RMK A01 T00441087  RH  038%=      5-min Rain = 0

Page generated in 0.0095 seconds.